Aeroporto :
LOGIN :

Iscrizione | Disclaimer

   EN    FR    IT 

 










Sommario :    VFR   VFR Marginale   IFR   IFR Intensivo   IFR Molto Intensivo
Visibilità : 
Base nubi : 
>= 8 km
>= 3000ft
5 / 8 km
1000 / 3000 ft
1500m / 5 km
500 / 1000 ft
800 / 1500m
200 / 500 ft
< 800m
< 200 ft
Simboli :   Temporali  Nebbia  Neve Forte  Precipitazioni Forti  Vento > 20 kt
SIGMETs :   Varie  Temporali  Ghiacco  Turbolenza  Onda orograficha  Ceneri Vulcaniche






- Altitudine del aeroporto : 656 ft


UUBC - Grabtsevo

ULTIMO METAR :
  • 301900Z AUTO 01006MPS 340V040 9999 // ///016/// M02/M05 Q1009 RMK QFE739/0985

METARs OBSOLETI :
  • 301800Z AUTO 36005MPS 9000 // ///012/// M02/M04 Q1009 RMK QFE739/0985
  • 301730Z 01005MPS 6000 -SN OVC012 M01/M04 Q1009 R13/CLRD60 NOSIG RMK QFE738/0985
  • 301700Z 36006MPS 9999 -SN OVC013 M01/M04 Q1009 R13/CLRD60 NOSIG RMK QFE738/0985

TAF TAF UUBC
Valido dal 30 a 18 ore il 31 a 03 ore UTC


301641Z 3018/3103 34005G10MPS 9000 BKN011
TEMPO 3018/3103 01003G08MPS 3500 -SHSN BKN010CB



MetMap, La meteo Aeronautica in un colpo d'occhio ! - Copyright ORBIFLY Dicembre 2007 - Disclaimer

ORBIFLY MET'MAP TEAM :

Programmazione e sviluppo : Alexandra Zaïnal
Concezione : Baudouin d'Aumeries
Aiuto per la programmazione : Marc-Olivier Méhu
Supporto tecnico e logistico : Manuel Goepfert
Aiuto per la traduzione : Arnaldo La Scala

Contatto : metmap@orbifly.com




FONTI E CREDITI :

   NOAA